TimeEDT,TemperatureF,Dew PointF,Humidity,Sea Level PressureIn,VisibilityMPH,Wind Direction,Wind SpeedMPH,Gust SpeedMPH,PrecipitationIn,Events,Conditions,WindDirDegrees,DateUTC
12:52 AM,39.9,37.9,93,30.42,7.0,Calm,Calm,-,N/A,,Clear,0,2013-10-14 04:52:00
1:52 AM,39.0,37.0,93,30.41,6.0,Calm,Calm,-,N/A,,Clear,0,2013-10-14 05:52:00
2:52 AM,37.9,36.0,93,30.40,7.0,Calm,Calm,-,N/A,,Clear,0,2013-10-14 06:52:00
3:52 AM,37.9,36.0,93,30.40,9.0,Calm,Calm,-,N/A,,Clear,0,2013-10-14 07:52:00
4:52 AM,37.0,36.0,96,30.39,7.0,Calm,Calm,-,N/A,,Clear,0,2013-10-14 08:52:00
5:52 AM,37.0,34.0,89,30.39,10.0,Calm,Calm,-,N/A,,Clear,0,2013-10-14 09:52:00
6:52 AM,35.1,32.0,89,30.39,10.0,Calm,Calm,-,N/A,,Clear,0,2013-10-14 10:52:00
7:52 AM,37.9,37.0,97,30.40,8.0,Calm,Calm,-,N/A,,Clear,0,2013-10-14 11:52:00
8:52 AM,46.0,41.0,83,30.40,10.0,Calm,Calm,-,N/A,,Clear,0,2013-10-14 12:52:00
9:52 AM,51.1,44.1,77,30.39,10.0,Calm,Calm,-,N/A,,Clear,0,2013-10-14 13:52:00
10:52 AM,55.9,45.0,67,30.37,10.0,Calm,Calm,-,N/A,,Clear,0,2013-10-14 14:52:00
11:52 AM,59.0,41.0,51,30.35,10.0,Calm,Calm,-,N/A,,Clear,0,2013-10-14 15:52:00
12:52 PM,63.0,39.9,43,30.32,10.0,ESE,4.6,-,N/A,,Clear,110,2013-10-14 16:52:00
1:52 PM,64.9,39.9,40,30.29,10.0,Calm,Calm,-,N/A,,Clear,0,2013-10-14 17:52:00
2:52 PM,66.0,41.0,40,30.28,10.0,Calm,Calm,-,N/A,,Clear,0,2013-10-14 18:52:00
3:52 PM,66.9,39.9,37,30.26,10.0,South,6.9,-,N/A,,Clear,170,2013-10-14 19:52:00
4:52 PM,66.0,37.9,36,30.26,10.0,SSE,8.1,-,N/A,,Clear,160,2013-10-14 20:52:00
5:52 PM,63.0,39.9,43,30.27,10.0,SSE,5.8,-,N/A,,Partly Cloudy,160,2013-10-14 21:52:00
6:52 PM,59.0,43.0,55,30.29,10.0,SSE,3.5,-,N/A,,Partly Cloudy,150,2013-10-14 22:52:00
7:52 PM,54.0,45.0,72,30.30,10.0,Calm,Calm,-,N/A,,Clear,0,2013-10-14 23:52:00
8:52 PM,51.1,45.0,80,30.29,10.0,Calm,Calm,-,N/A,,Clear,0,2013-10-15 00:52:00
9:52 PM,51.1,45.0,80,30.29,10.0,Calm,Calm,-,N/A,,Scattered Clouds,0,2013-10-15 01:52:00
10:52 PM,51.1,46.0,83,30.28,10.0,Calm,Calm,-,N/A,,Overcast,0,2013-10-15 02:52:00
11:52 PM,52.0,46.0,80,30.28,10.0,Calm,Calm,-,N/A,,Overcast,0,2013-10-15 03:52:00